Aérodrome :
LOGIN :

S'inscrire | Disclaimer

   EN    FR    IT 

 










Légende :    VFR   VFR Marginal   IFR   IFR Intensif   IFR Très Intensif
Visi : 
Plafond : 
>= 8 km
>= 3000ft
5 à 8 km
1000 à 3000 ft
1500m à 5 km
500 à 1000 ft
800 à 1500m
200 à 500 ft
< 800m
< 200 ft
Symboles :   Orages  Brouillard  Fortes neiges  Fortes précipitations  Vent > 20 kt
SIGMETs :   Divers  Orages  Givrage  Turbulence  Onde Orograph.  Cendres Volcan.







- Altitude de l'aérodrome : 13 ft
- Code IATA : GOA


LIMJ - Genoa Cristoforo Colombo

DERNIER METAR :
  • 222320Z 02006KT CAVOK 09/02 Q1015

METARs EXPIRÉS :
  • 222250Z 04005KT 010V080 CAVOK 09/02 Q1014
  • 222220Z 02005KT 340V050 CAVOK 09/02 Q1014
  • 222150Z 02005KT CAVOK 09/03 Q1014
  • 222120Z 02005KT CAVOK 09/04 Q1014
  • 222050Z 01004KT CAVOK 09/04 Q1014

TAF TAF LIMJ
Valide du 23 à 00h jusqu'au 24 à 00h UTC


222300Z 2300/2324 VRB05KT CAVOK
Pas de NOTAMs connus pour ce terrain.
1 SIGMET publié pour la FIR Milano (LIMM) :
 
Turbulence forte
LIMM SIGMET 6 VALID 222230/230230 LIIP
LIMM MILANO FIR SEV TURB FCST W OF LINE N4650 E00919 - N4328 E01226 ABV FL110 STNR NC=



MET'MAP, la Météo Aéronautique d'un coup d'oeil ! - Copyright ORBIFLY Décembre 2007 - Disclaimer

ORBIFLY MET'MAP TEAM :

Programmation & Développement : Alexandra Zaïnal
Conception & Développement : Baudouin d'Aumeries
Co-Programmation & Développement : Marc-Olivier Méhu
Soutien technique & logistique : Manuel Goepfert

Contact : metmap@orbifly.com




SOURCES & CREDITS :

   NOAA